Time;durP1;ratioP1;P1;durP2;ratioP2;P2;SDS_P1;SDS_P2;PMS_P1;PMS_P2;Temp;Humidity;BMP_temperature;BMP_pressure;BME280_temperature;BME280_humidity;BME280_pressure;Samples;Min_cycle;Max_cycle;Signal;HPM_P1;HPM_P2
2022/07/18 00:03:08;;;;;;;;;;;16.00;62.80;;;;;;4097333;28;20395;-87
2022/07/18 00:08:00;;;;;;;;;;;16.00;63.20;;;;;;4124048;28;19917;-87
2022/07/18 00:10:05;;;;;;;;;;;16.00;63.50;;;;;;4141199;28;19935;-87
2022/07/18 00:12:42;;;;;;;;;;;15.90;62.70;;;;;;4148707;28;20023;-87
2022/07/18 00:15:05;;;;;;;;;;;15.90;64.10;;;;;;4130223;28;19909;-87
2022/07/18 00:17:34;;;;;;;;;;;15.90;64.30;;;;;;3614523;28;15101092;-86
2022/07/18 00:19:40;;;;;;;;;;;15.90;64.60;;;;;;4110577;28;19910;-86
2022/07/18 00:22:14;;;;;;;;;;;15.90;64.20;;;;;;4111543;28;20929;-87
2022/07/18 00:26:50;;;;;;;;;;;15.90;64.00;;;;;;4130228;28;19952;-86
2022/07/18 00:29:00;;;;;;;;;;;15.90;64.10;;;;;;4117820;28;19973;-86
2022/07/18 00:31:33;;;;;;;;;;;15.90;64.10;;;;;;4125746;28;19975;-87
2022/07/18 00:33:52;;;;;;;;;;;15.90;64.80;;;;;;4131339;28;19936;-86
2022/07/18 00:35:58;;;;;;;;;;;15.90;64.20;;;;;;4110533;28;20448;-86
2022/07/18 00:38:02;;;;;;;;;;;15.80;63.90;;;;;;4105113;28;19917;-87
2022/07/18 00:40:12;;;;;;;;;;;15.90;63.70;;;;;;4134000;28;19972;-87
2022/07/18 00:42:14;;;;;;;;;;;15.90;64.90;;;;;;4137424;28;19960;-86
2022/07/18 00:44:48;;;;;;;;;;;15.80;64.60;;;;;;4124921;28;19909;-87
2022/07/18 00:46:54;;;;;;;;;;;15.80;64.20;;;;;;4144750;28;19982;-87
2022/07/18 00:49:18;;;;;;;;;;;15.80;64.60;;;;;;4129564;28;20381;-87
2022/07/18 00:51:37;;;;;;;;;;;;;;;;;;;;;
2022/07/18 00:53:51;;;;;;;;;;;15.80;64.60;;;;;;4132740;28;19913;-87
2022/07/18 00:55:59;;;;;;;;;;;15.80;64.00;;;;;;4115591;28;19910;-86
2022/07/18 00:58:04;;;;;;;;;;;15.80;64.80;;;;;;4128612;28;19909;-87
2022/07/18 01:02:52;;;;;;;;;;;15.80;65.80;;;;;;4141466;28;19917;-88
2022/07/18 01:04:53;;;;;;;;;;;15.80;65.50;;;;;;4144652;28;19917;-88
2022/07/18 01:06:54;;;;;;;;;;;15.80;64.90;;;;;;4143081;28;19955;-88
2022/07/18 01:08:58;;;;;;;;;;;15.80;64.70;;;;;;4128139;28;19913;-88
2022/07/18 01:11:21;;;;;;;;;;;15.80;64.40;;;;;;4116189;28;20000;-88
2022/07/18 01:13:31;;;;;;;;;;;15.80;65.40;;;;;;4116432;28;19910;-87
2022/07/18 01:15:42;;;;;;;;;;;15.80;64.80;;;;;;4119263;28;19910;-87
2022/07/18 01:17:42;;;;;;;;;;;15.80;64.90;;;;;;4133449;28;19960;-88
2022/07/18 01:19:52;;;;;;;;;;;15.80;64.70;;;;;;4133531;28;19910;-88
2022/07/18 01:24:05;;;;;;;;;;;15.80;64.50;;;;;;4185620;28;19932;-88
2022/07/18 01:26:34;;;;;;;;;;;15.80;64.80;;;;;;4149358;28;20709;-87
2022/07/18 01:29:11;;;;;;;;;;;15.80;65.30;;;;;;4152360;28;19943;-88
2022/07/18 01:31:33;;;;;;;;;;;15.80;65.40;;;;;;4181593;28;20063;-87
2022/07/18 01:33:49;;;;;;;;;;;15.80;64.60;;;;;;4162163;28;19924;-88
2022/07/18 01:35:50;;;;;;;;;;;15.80;65.40;;;;;;4164141;28;19924;-88
2022/07/18 01:38:19;;;;;;;;;;;;;;;;;;;;;
2022/07/18 01:40:24;;;;;;;;;;;15.80;64.90;;;;;;4163164;28;20008;-87
2022/07/18 01:42:31;;;;;;;;;;;15.80;64.70;;;;;;4148259;28;19964;-88
2022/07/18 01:47:49;;;;;;;;;;;15.80;64.80;;;;;;4115718;28;21528;-88
2022/07/18 01:49:52;;;;;;;;;;;15.80;64.60;;;;;;4101631;28;19933;-87
2022/07/18 01:52:00;;;;;;;;;;;15.80;65.20;;;;;;4085330;28;20030;-89
2022/07/18 01:54:01;;;;;;;;;;;15.80;65.00;;;;;;4101294;28;19972;-87
2022/07/18 01:56:03;;;;;;;;;;;15.80;65.20;;;;;;4097882;28;20460;-88
2022/07/18 01:58:04;;;;;;;;;;;15.80;65.50;;;;;;4095666;28;19921;-88
2022/07/18 02:00:28;;;;;;;;;;;15.80;65.00;;;;;;4114646;28;19979;-87
2022/07/18 02:02:41;;;;;;;;;;;15.80;65.30;;;;;;4102420;28;20001;-88
2022/07/18 02:05:02;;;;;;;;;;;15.80;65.10;;;;;;4102343;28;19914;-87
2022/07/18 02:07:03;;;;;;;;;;;15.80;65.50;;;;;;4103362;28;19980;-87
2022/07/18 02:09:09;;;;;;;;;;;15.80;65.10;;;;;;4082592;28;19915;-87
2022/07/18 02:11:13;;;;;;;;;;;15.80;65.10;;;;;;4098633;28;20461;-87
2022/07/18 02:13:16;;;;;;;;;;;15.80;65.70;;;;;;4086685;28;19914;-88
2022/07/18 02:15:37;;;;;;;;;;;15.90;66.50;;;;;;4101461;28;19925;-87
2022/07/18 02:17:41;;;;;;;;;;;15.80;66.10;;;;;;4086310;28;19918;-86
2022/07/18 02:19:54;;;;;;;;;;;15.80;66.90;;;;;;4093813;28;19949;-87
2022/07/18 02:22:04;;;;;;;;;;;15.70;66.50;;;;;;4084926;28;19910;-86
2022/07/18 02:24:07;;;;;;;;;;;15.80;66.50;;;;;;4134696;28;19974;-87
2022/07/18 02:26:11;;;;;;;;;;;15.70;66.10;;;;;;4164119;28;20340;-88
2022/07/18 02:28:28;;;;;;;;;;;;;;;;;;;;;
2022/07/18 02:30:29;;;;;;;;;;;15.70;65.20;;;;;;4159053;28;19970;-88
2022/07/18 02:32:45;;;;;;;;;;;15.70;66.10;;;;;;4164962;28;19916;-88
2022/07/18 02:34:49;;;;;;;;;;;15.70;65.80;;;;;;4148173;28;19917;-88
2022/07/18 02:36:52;;;;;;;;;;;15.70;65.60;;;;;;4163024;28;19916;-88
2022/07/18 02:39:05;;;;;;;;;;;15.70;66.50;;;;;;4148465;28;19967;-88
2022/07/18 02:41:12;;;;;;;;;;;15.60;67.00;;;;;;4176629;28;19924;-87
2022/07/18 02:43:15;;;;;;;;;;;15.60;66.40;;;;;;4161950;28;19924;-88
2022/07/18 02:45:19;;;;;;;;;;;15.60;66.50;;;;;;4165618;28;19959;-87
2022/07/18 02:47:28;;;;;;;;;;;15.70;66.60;;;;;;4160805;28;20383;-89
2022/07/18 02:52:29;;;;;;;;;;;15.60;66.70;;;;;;4161954;28;19952;-89
2022/07/18 02:54:36;;;;;;;;;;;15.70;66.00;;;;;;4161601;28;19912;-88
2022/07/18 02:56:56;;;;;;;;;;;15.60;66.60;;;;;;4161369;28;19927;-88
2022/07/18 02:59:15;;;;;;;;;;;15.60;66.80;;;;;;4163544;28;19990;-88
2022/07/18 03:01:24;;;;;;;;;;;15.60;66.60;;;;;;4128863;28;20492;-88
2022/07/18 03:03:31;;;;;;;;;;;15.60;66.20;;;;;;4115187;28;19916;-88
2022/07/18 03:05:40;;;;;;;;;;;15.60;66.10;;;;;;4121680;28;19909;-88
2022/07/18 03:07:41;;;;;;;;;;;15.60;66.20;;;;;;4158683;28;19924;-89
2022/07/18 03:10:08;;;;;;;;;;;15.60;67.00;;;;;;4160681;28;19930;-87
2022/07/18 03:12:13;;;;;;;;;;;15.60;67.10;;;;;;4160447;28;19916;-87
2022/07/18 03:14:37;;;;;;;;;;;15.60;66.90;;;;;;4149719;28;19943;-87
2022/07/18 03:19:17;;;;;;;;;;;15.60;66.40;;;;;;4160933;28;19913;-87
2022/07/18 03:21:24;;;;;;;;;;;15.60;66.50;;;;;;4154330;28;20410;-86
2022/07/18 03:23:33;;;;;;;;;;;15.60;66.20;;;;;;4144466;28;20015;-88
2022/07/18 03:25:36;;;;;;;;;;;15.60;66.60;;;;;;4160678;28;19919;-88
2022/07/18 03:27:47;;;;;;;;;;;15.50;66.70;;;;;;4160181;28;19952;-87
2022/07/18 03:30:03;;;;;;;;;;;15.60;66.40;;;;;;4146316;28;20627;-87
2022/07/18 03:32:15;;;;;;;;;;;15.60;66.40;;;;;;4164498;28;20385;-86
2022/07/18 03:34:35;;;;;;;;;;;15.60;66.10;;;;;;4151780;28;19984;-87
2022/07/18 03:39:19;;;;;;;;;;;15.60;66.00;;;;;;4111201;28;19937;-87
2022/07/18 03:41:54;;;;;;;;;;;;;;;;;;;;;
2022/07/18 03:43:59;;;;;;;;;;;15.60;66.10;;;;;;4108035;28;21205;-87
2022/07/18 03:46:12;;;;;;;;;;;15.50;65.90;;;;;;4108755;28;19914;-86
2022/07/18 03:48:16;;;;;;;;;;;15.60;66.10;;;;;;4097518;28;19918;-87
2022/07/18 03:50:29;;;;;;;;;;;15.60;66.00;;;;;;4095525;28;19929;-87
2022/07/18 03:52:32;;;;;;;;;;;15.50;65.90;;;;;;4094405;28;19914;-87
2022/07/18 03:54:36;;;;;;;;;;;15.50;66.00;;;;;;4107358;28;19914;-87
2022/07/18 03:56:37;;;;;;;;;;;15.60;66.10;;;;;;4076791;28;21863;-86
2022/07/18 04:01:04;;;;;;;;;;;15.60;67.00;;;;;;4113426;28;20371;-87
2022/07/18 04:03:19;;;;;;;;;;;15.50;66.30;;;;;;4109722;28;19914;-87
2022/07/18 04:05:50;;;;;;;;;;;15.60;66.30;;;;;;4104004;28;19933;-87
2022/07/18 04:08:23;;;;;;;;;;;15.60;66.40;;;;;;4092631;28;19910;-86
2022/07/18 04:10:39;;;;;;;;;;;15.60;66.00;;;;;;4090802;28;19981;-86
2022/07/18 04:13:15;;;;;;;;;;;15.60;66.70;;;;;;4094967;28;19965;-87
2022/07/18 04:15:29;;;;;;;;;;;15.70;66.20;;;;;;4095932;28;20013;-87
2022/07/18 04:17:30;;;;;;;;;;;15.50;65.70;;;;;;4147087;28;19913;-87
2022/07/18 04:19:34;;;;;;;;;;;15.60;65.80;;;;;;4143028;28;19917;-86
2022/07/18 04:21:45;;;;;;;;;;;15.60;65.90;;;;;;4141439;28;19913;-87
2022/07/18 04:27:13;;;;;;;;;;;15.70;67.10;;;;;;4090394;28;19999;-86
2022/07/18 04:29:36;;;;;;;;;;;15.70;66.50;;;;;;4096903;28;20005;-88
2022/07/18 04:31:54;;;;;;;;;;;15.70;66.40;;;;;;4075046;28;20361;-87
2022/07/18 04:34:00;;;;;;;;;;;15.70;66.10;;;;;;4097188;28;20437;-86
2022/07/18 04:36:10;;;;;;;;;;;15.70;65.90;;;;;;4079673;28;19925;-87
2022/07/18 04:38:41;;;;;;;;;;;15.70;65.40;;;;;;4085659;28;19961;-87
2022/07/18 04:40:44;;;;;;;;;;;15.80;65.90;;;;;;4101838;28;19917;-87
2022/07/18 04:42:57;;;;;;;;;;;15.80;66.30;;;;;;4096139;28;19913;-87
2022/07/18 04:45:01;;;;;;;;;;;15.80;66.20;;;;;;4095218;28;19933;-88
2022/07/18 04:47:12;;;;;;;;;;;15.90;66.10;;;;;;4113294;28;19932;-88
2022/07/18 04:49:16;;;;;;;;;;;15.90;66.30;;;;;;4098214;28;19918;-87
2022/07/18 04:51:32;;;;;;;;;;;15.90;66.30;;;;;;4095602;28;19941;-87
2022/07/18 04:53:33;;;;;;;;;;;15.90;66.20;;;;;;4084271;28;19910;-87
2022/07/18 04:58:23;;;;;;;;;;;16.00;66.10;;;;;;4052596;29;19926;-87
2022/07/18 05:00:24;;;;;;;;;;;16.10;66.20;;;;;;4052717;29;19919;-86
2022/07/18 05:02:44;;;;;;;;;;;16.10;66.40;;;;;;4060310;28;19961;-86
2022/07/18 05:04:57;;;;;;;;;;;16.10;66.10;;;;;;4100346;28;20004;-86
2022/07/18 05:07:06;;;;;;;;;;;16.10;66.20;;;;;;4082607;28;19910;-86
2022/07/18 05:09:28;;;;;;;;;;;16.10;66.70;;;;;;4098279;28;20077;-87
2022/07/18 05:11:29;;;;;;;;;;;16.10;66.80;;;;;;4105602;28;20642;-88
2022/07/18 05:13:38;;;;;;;;;;;16.10;66.40;;;;;;4120309;28;19925;-86
2022/07/18 05:15:57;;;;;;;;;;;16.20;66.20;;;;;;4100655;28;19918;-86
2022/07/18 05:18:27;;;;;;;;;;;16.20;66.60;;;;;;4096115;28;20404;-87
2022/07/18 05:20:28;;;;;;;;;;;16.20;66.30;;;;;;4032283;29;20456;-86
2022/07/18 05:22:36;;;;;;;;;;;16.30;66.00;;;;;;4031527;29;19919;-87
2022/07/18 05:24:42;;;;;;;;;;;16.20;65.90;;;;;;4022956;29;19915;-87
2022/07/18 05:26:43;;;;;;;;;;;16.30;65.90;;;;;;4048977;29;20351;-86
2022/07/18 05:29:19;;;;;;;;;;;16.30;66.20;;;;;;4036535;29;19967;-86
2022/07/18 05:31:20;;;;;;;;;;;16.30;66.20;;;;;;4044185;29;20103;-87
2022/07/18 05:33:23;;;;;;;;;;;16.30;66.00;;;;;;4053573;29;19946;-86
2022/07/18 05:35:23;;;;;;;;;;;16.40;66.10;;;;;;4090160;28;19914;-86
2022/07/18 05:37:24;;;;;;;;;;;16.40;65.80;;;;;;4086210;28;22757;-88
2022/07/18 05:39:35;;;;;;;;;;;16.40;66.00;;;;;;4098032;28;19937;-87
2022/07/18 05:41:35;;;;;;;;;;;16.40;66.00;;;;;;4092866;28;19921;-87
2022/07/18 05:43:36;;;;;;;;;;;16.50;66.00;;;;;;4094943;28;19914;-87
2022/07/18 05:45:37;;;;;;;;;;;16.50;66.20;;;;;;4093057;28;20040;-87
2022/07/18 05:47:37;;;;;;;;;;;16.50;66.20;;;;;;4076808;28;20397;-88
2022/07/18 05:49:38;;;;;;;;;;;16.50;65.80;;;;;;4081921;28;19910;-87
2022/07/18 05:51:39;;;;;;;;;;;16.50;65.80;;;;;;4092206;28;20064;-88
2022/07/18 05:53:39;;;;;;;;;;;16.50;66.00;;;;;;4090041;28;19914;-87
2022/07/18 05:55:44;;;;;;;;;;;16.60;66.20;;;;;;4087615;28;21730;-87
2022/07/18 05:57:45;;;;;;;;;;;16.60;66.40;;;;;;4100923;28;19924;-88
2022/07/18 05:59:45;;;;;;;;;;;16.60;66.60;;;;;;4157562;28;19959;-87
2022/07/18 06:01:46;;;;;;;;;;;16.70;66.60;;;;;;4142515;28;20286;-86
2022/07/18 06:03:47;;;;;;;;;;;16.70;66.70;;;;;;4151100;28;20040;-86
2022/07/18 06:05:48;;;;;;;;;;;16.80;66.60;;;;;;4136631;28;19917;-87
2022/07/18 06:07:49;;;;;;;;;;;16.80;67.20;;;;;;4157086;28;19924;-87
2022/07/18 06:09:50;;;;;;;;;;;16.80;66.80;;;;;;4157784;28;20071;-87
2022/07/18 06:11:51;;;;;;;;;;;16.90;66.90;;;;;;4140554;28;19908;-86
2022/07/18 06:13:54;;;;;;;;;;;16.90;66.60;;;;;;4162438;28;19920;-85
2022/07/18 06:15:59;;;;;;;;;;;16.90;66.70;;;;;;4160453;28;19960;-87
2022/07/18 06:18:00;;;;;;;;;;;17.00;66.40;;;;;;4163777;28;20393;-85
2022/07/18 06:20:00;;;;;;;;;;;17.00;66.60;;;;;;4161567;28;19916;-86
2022/07/18 06:22:01;;;;;;;;;;;17.00;66.50;;;;;;4160444;28;20269;-86
2022/07/18 06:24:02;;;;;;;;;;;17.10;66.30;;;;;;4152838;28;19959;-87
2022/07/18 06:26:05;;;;;;;;;;;17.10;66.30;;;;;;4156906;28;19921;-87
2022/07/18 06:28:06;;;;;;;;;;;17.10;66.70;;;;;;4159538;28;20513;-89
2022/07/18 06:30:08;;;;;;;;;;;17.20;66.40;;;;;;4155864;28;20110;-87
2022/07/18 06:32:08;;;;;;;;;;;17.20;66.60;;;;;;4145699;28;19924;-86
2022/07/18 06:34:09;;;;;;;;;;;17.30;66.30;;;;;;4151982;28;19913;-87
2022/07/18 06:36:11;;;;;;;;;;;17.30;66.20;;;;;;4157976;28;19915;-85
2022/07/18 06:38:12;;;;;;;;;;;17.30;65.90;;;;;;4158340;28;19916;-86
2022/07/18 06:40:13;;;;;;;;;;;17.40;66.30;;;;;;4163217;28;19915;-85
2022/07/18 06:42:15;;;;;;;;;;;17.40;66.60;;;;;;4154021;28;20438;-86
2022/07/18 06:44:15;;;;;;;;;;;17.50;66.10;;;;;;4167761;28;19972;-86
2022/07/18 06:46:16;;;;;;;;;;;17.50;66.10;;;;;;4153321;28;20296;-87
2022/07/18 06:48:17;;;;;;;;;;;17.50;66.20;;;;;;4159056;28;19995;-86
2022/07/18 06:50:18;;;;;;;;;;;17.60;66.30;;;;;;4157889;28;19944;-85
2022/07/18 06:52:18;;;;;;;;;;;17.60;66.30;;;;;;4172833;23;20015;-86
2022/07/18 06:54:26;;;;;;;;;;;17.70;66.00;;;;;;4156473;28;19913;-84
2022/07/18 06:56:52;;;;;;;;;;;17.70;66.30;;;;;;4134800;28;22016;-85
2022/07/18 06:58:55;;;;;;;;;;;17.70;66.10;;;;;;4137888;28;19910;-84
2022/07/18 07:00:55;;;;;;;;;;;17.80;65.80;;;;;;4158187;28;20572;-84
2022/07/18 07:02:58;;;;;;;;;;;17.90;65.70;;;;;;4133781;28;19909;-85
2022/07/18 07:04:59;;;;;;;;;;;18.00;66.00;;;;;;4134954;28;19910;-85
2022/07/18 07:07:00;;;;;;;;;;;18.00;65.80;;;;;;4154466;28;21524;-85
2022/07/18 07:11:32;;;;;;;;;;;18.10;66.00;;;;;;4072595;29;19950;-83
2022/07/18 07:13:36;;;;;;;;;;;18.10;65.70;;;;;;4078017;29;19918;-85
2022/07/18 07:15:36;;;;;;;;;;;18.20;65.50;;;;;;4073651;29;19993;-83
2022/07/18 07:17:49;;;;;;;;;;;18.20;65.30;;;;;;4077700;29;19914;-84
2022/07/18 07:19:52;;;;;;;;;;;18.20;65.20;;;;;;4074261;29;22014;-84
2022/07/18 07:22:15;;;;;;;;;;;18.30;65.10;;;;;;4059823;29;19956;-84
2022/07/18 07:24:16;;;;;;;;;;;18.30;64.90;;;;;;4075228;29;20590;-84
2022/07/18 07:26:17;;;;;;;;;;;18.40;64.80;;;;;;4077233;29;20107;-84
2022/07/18 07:30:53;;;;;;;;;;;18.40;64.60;;;;;;4058186;29;19911;-85
2022/07/18 07:32:54;;;;;;;;;;;18.50;64.50;;;;;;4056843;29;19918;-85
2022/07/18 07:34:55;;;;;;;;;;;18.50;64.10;;;;;;4044865;29;20069;-84
2022/07/18 07:37:31;;;;;;;;;;;18.50;64.00;;;;;;4054274;29;19923;-85
2022/07/18 07:39:35;;;;;;;;;;;18.50;63.60;;;;;;4064401;29;19918;-84
2022/07/18 07:41:35;;;;;;;;;;;18.50;63.30;;;;;;4048154;29;19911;-84
2022/07/18 07:43:41;;;;;;;;;;;18.60;63.50;;;;;;4050682;29;20389;-85
2022/07/18 07:48:22;;;;;;;;;;;18.60;63.20;;;;;;4037924;29;19913;-86
2022/07/18 07:50:23;;;;;;;;;;;18.60;63.00;;;;;;4027687;29;19938;-85
2022/07/18 07:52:28;;;;;;;;;;;18.70;63.20;;;;;;4009954;29;19916;-85
2022/07/18 07:54:28;;;;;;;;;;;18.70;63.20;;;;;;4030385;29;20329;-84
2022/07/18 07:56:32;;;;;;;;;;;18.70;62.60;;;;;;4124559;23;19929;-88
2022/07/18 07:58:32;;;;;;;;;;;18.70;63.80;;;;;;4155860;28;20012;-85
2022/07/18 08:00:43;;;;;;;;;;;18.80;62.80;;;;;;4153212;28;19944;-86
2022/07/18 08:03:21;;;;;;;;;;;18.80;62.80;;;;;;4157154;28;19920;-86
2022/07/18 08:05:35;;;;;;;;;;;18.80;62.80;;;;;;4048151;29;20010;-85
2022/07/18 08:07:36;;;;;;;;;;;18.80;62.60;;;;;;4081871;28;19937;-87
2022/07/18 08:09:42;;;;;;;;;;;18.90;62.80;;;;;;4081887;28;19914;-86
2022/07/18 08:12:12;;;;;;;;;;;18.90;62.90;;;;;;4061260;29;19983;-87
2022/07/18 08:14:33;;;;;;;;;;;19.00;63.00;;;;;;4038952;29;20399;-86
2022/07/18 08:16:54;;;;;;;;;;;19.10;63.00;;;;;;4053490;29;20372;-86
2022/07/18 08:18:54;;;;;;;;;;;19.10;62.80;;;;;;4038156;29;20010;-87
2022/07/18 08:21:33;;;;;;;;;;;19.10;62.70;;;;;;4032344;29;19922;-86
2022/07/18 08:23:35;;;;;;;;;;;19.20;62.80;;;;;;4031503;29;19931;-86
2022/07/18 08:25:42;;;;;;;;;;;19.30;62.90;;;;;;4046652;29;19919;-87
2022/07/18 08:28:07;;;;;;;;;;;19.40;63.10;;;;;;4033800;29;20285;-86
2022/07/18 08:30:07;;;;;;;;;;;19.40;63.00;;;;;;4044973;29;20272;-87
2022/07/18 08:32:16;;;;;;;;;;;19.50;63.70;;;;;;4021655;29;19947;-90
2022/07/18 08:34:22;;;;;;;;;;;19.60;61.60;;;;;;4045222;29;20119;-87
2022/07/18 08:36:30;;;;;;;;;;;19.70;61.70;;;;;;4092413;28;20634;-88
2022/07/18 08:38:37;;;;;;;;;;;19.70;61.60;;;;;;4113706;28;19918;-87
2022/07/18 08:40:46;;;;;;;;;;;19.80;60.90;;;;;;4108789;28;19910;-87
2022/07/18 08:42:52;;;;;;;;;;;19.90;60.50;;;;;;4106550;28;21344;-87
2022/07/18 08:44:54;;;;;;;;;;;20.00;60.30;;;;;;4123683;28;20332;-88
2022/07/18 08:46:56;;;;;;;;;;;20.00;60.60;;;;;;4154333;28;20338;-86
2022/07/18 08:48:57;;;;;;;;;;;20.10;59.80;;;;;;4156714;28;19909;-87
2022/07/18 08:50:58;;;;;;;;;;;20.20;60.50;;;;;;4154461;28;19912;-87
2022/07/18 08:52:59;;;;;;;;;;;20.30;59.90;;;;;;4149004;28;19917;-87
2022/07/18 08:55:00;;;;;;;;;;;20.40;59.70;;;;;;4152539;28;19927;-87
2022/07/18 08:57:00;;;;;;;;;;;20.50;59.30;;;;;;4133762;28;22047;-85
2022/07/18 08:59:02;;;;;;;;;;;20.60;59.80;;;;;;4155469;28;19923;-87
2022/07/18 09:01:03;;;;;;;;;;;20.70;59.80;;;;;;4150656;28;19917;-87
2022/07/18 09:03:04;;;;;;;;;;;20.80;59.90;;;;;;4155510;28;19917;-85
2022/07/18 09:05:05;;;;;;;;;;;20.90;59.60;;;;;;4151913;28;19917;-89
2022/07/18 09:07:08;;;;;;;;;;;21.00;59.90;;;;;;4150270;28;20389;-86
2022/07/18 09:09:10;;;;;;;;;;;21.20;58.80;;;;;;4133459;28;19913;-87
2022/07/18 09:11:11;;;;;;;;;;;21.20;58.90;;;;;;4152938;28;19913;-86
2022/07/18 09:13:12;;;;;;;;;;;21.30;59.10;;;;;;4146175;28;20411;-85
2022/07/18 09:15:15;;;;;;;;;;;21.50;59.50;;;;;;4140338;28;19916;-85
2022/07/18 09:17:30;;;;;;;;;;;21.50;58.00;;;;;;4155588;28;19916;-87
2022/07/18 09:19:32;;;;;;;;;;;21.60;57.30;;;;;;4145763;28;19952;-87
2022/07/18 09:21:37;;;;;;;;;;;21.80;58.10;;;;;;4148135;28;19909;-87
2022/07/18 09:23:48;;;;;;;;;;;21.90;57.30;;;;;;4133845;28;20464;-90
2022/07/18 09:27:57;;;;;;;;;;;22.10;56.40;;;;;;4181966;28;19928;-85
2022/07/18 09:30:20;;;;;;;;;;;22.20;55.80;;;;;;4184705;28;19916;-84
2022/07/18 09:35:44;;;;;;;;;;;22.40;56.00;;;;;;4118926;28;19918;-84
2022/07/18 09:40:49;;;;;;;;;;;22.70;52.80;;;;;;4121856;28;19950;-86
2022/07/18 09:43:29;;;;;;;;;;;22.80;53.10;;;;;;4118941;28;20829;-86
2022/07/18 09:45:37;;;;;;;;;;;22.90;54.30;;;;;;4122777;28;20724;-86
2022/07/18 09:47:59;;;;;;;;;;;23.00;54.80;;;;;;4104209;28;20065;-85
2022/07/18 09:50:40;;;;;;;;;;;23.10;54.40;;;;;;4116260;28;20525;-85
2022/07/18 09:52:43;;;;;;;;;;;23.30;52.50;;;;;;4052788;29;21469;-85
2022/07/18 09:54:44;;;;;;;;;;;23.40;53.90;;;;;;4059821;29;20010;-85
2022/07/18 09:56:55;;;;;;;;;;;23.50;51.60;;;;;;4058287;29;19930;-86
2022/07/18 09:59:25;;;;;;;;;;;23.60;52.10;;;;;;4070417;29;20006;-85
2022/07/18 10:01:29;;;;;;;;;;;23.70;52.70;;;;;;4074919;29;20314;-86
2022/07/18 10:03:30;;;;;;;;;;;23.80;50.50;;;;;;4071322;29;19966;-85
2022/07/18 10:05:32;;;;;;;;;;;23.90;51.60;;;;;;4133027;22;19915;-85
2022/07/18 10:07:32;;;;;;;;;;;24.00;49.30;;;;;;4139859;28;21179;-83
2022/07/18 10:09:33;;;;;;;;;;;24.10;51.40;;;;;;4144429;28;19956;-84
2022/07/18 10:11:34;;;;;;;;;;;24.20;49.40;;;;;;4151594;28;19994;-85
2022/07/18 10:13:36;;;;;;;;;;;24.30;50.60;;;;;;4160687;28;19905;-84
2022/07/18 10:15:41;;;;;;;;;;;24.40;51.60;;;;;;4164564;28;19919;-86
2022/07/18 10:17:43;;;;;;;;;;;24.50;47.70;;;;;;4150511;28;20400;-83
2022/07/18 10:19:43;;;;;;;;;;;24.50;48.40;;;;;;4145894;28;19916;-86
2022/07/18 10:21:47;;;;;;;;;;;24.60;46.10;;;;;;4149210;28;19920;-82
2022/07/18 10:23:51;;;;;;;;;;;24.70;47.60;;;;;;4144683;28;19959;-85
2022/07/18 10:26:06;;;;;;;;;;;24.70;45.80;;;;;;4151726;28;20525;-87
2022/07/18 10:28:15;;;;;;;;;;;24.80;45.40;;;;;;4164664;28;19952;-86
2022/07/18 10:30:29;;;;;;;;;;;24.80;46.20;;;;;;4152425;28;20301;-84
2022/07/18 10:32:36;;;;;;;;;;;24.90;46.20;;;;;;4149338;28;20003;-85
2022/07/18 10:34:37;;;;;;;;;;;24.90;43.70;;;;;;4170686;28;20007;-84
2022/07/18 10:36:38;;;;;;;;;;;24.90;43.10;;;;;;4154443;28;19975;-85
2022/07/18 10:38:59;;;;;;;;;;;24.90;44.10;;;;;;4169376;28;19916;-85
2022/07/18 10:41:10;;;;;;;;;;;24.90;42.80;;;;;;4161032;28;20563;-86
2022/07/18 10:43:29;;;;;;;;;;;24.90;42.40;;;;;;4167294;28;20095;-84
2022/07/18 10:45:45;;;;;;;;;;;24.90;43.70;;;;;;4145692;28;20285;-84
2022/07/18 10:47:46;;;;;;;;;;;24.80;43.80;;;;;;4160767;28;19912;-85
2022/07/18 10:50:08;;;;;;;;;;;24.80;42.40;;;;;;4136465;23;20527;-84
2022/07/18 10:52:47;;;;;;;;;;;24.70;44.20;;;;;;4142769;28;19913;-84
2022/07/18 10:55:02;;;;;;;;;;;24.70;44.20;;;;;;4138439;28;19939;-85
2022/07/18 10:57:04;;;;;;;;;;;24.60;43.80;;;;;;4127675;28;19926;-84
2022/07/18 10:59:31;;;;;;;;;;;24.70;43.30;;;;;;4130973;28;19921;-85
2022/07/18 11:07:33;;;;;;;;;;;24.50;42.00;;;;;;4068538;28;19914;-84
2022/07/18 11:09:38;;;;;;;;;;;24.50;43.30;;;;;;4232415;23;19928;-85
2022/07/18 11:12:07;;;;;;;;;;;24.50;43.70;;;;;;4150394;28;20616;-86
2022/07/18 11:14:48;;;;;;;;;;;24.50;42.50;;;;;;4171272;28;19923;-87
2022/07/18 11:17:04;;;;;;;;;;;24.40;43.60;;;;;;4160477;28;19959;-86
2022/07/18 11:19:08;;;;;;;;;;;24.40;44.10;;;;;;4142291;28;19964;-87
2022/07/18 11:21:19;;;;;;;;;;;24.40;44.30;;;;;;4156223;28;20389;-84
2022/07/18 11:23:27;;;;;;;;;;;24.30;43.80;;;;;;4139837;28;19913;-85
2022/07/18 11:25:31;;;;;;;;;;;24.40;44.60;;;;;;4143062;28;20659;-88
2022/07/18 11:27:39;;;;;;;;;;;24.30;44.40;;;;;;4123009;28;20150;-85
2022/07/18 11:32:49;;;;;;;;;;;24.30;43.60;;;;;;4106598;28;19979;-86
2022/07/18 11:34:51;;;;;;;;;;;24.30;44.50;;;;;;4091136;28;20008;-86
2022/07/18 11:36:52;;;;;;;;;;;24.20;45.20;;;;;;4115583;28;20032;-87
2022/07/18 11:38:57;;;;;;;;;;;24.20;44.50;;;;;;4099637;28;19918;-84
2022/07/18 11:41:11;;;;;;;;;;;24.20;45.60;;;;;;4116909;28;19921;-85
2022/07/18 11:43:24;;;;;;;;;;;24.20;44.90;;;;;;4094879;28;20024;-84
2022/07/18 11:45:39;;;;;;;;;;;24.30;45.30;;;;;;4095786;28;20501;-84
2022/07/18 11:47:51;;;;;;;;;;;24.40;45.80;;;;;;4093267;28;19957;-85
2022/07/18 11:49:55;;;;;;;;;;;24.30;45.30;;;;;;4090567;28;20009;-86
2022/07/18 11:57:25;;;;;;;;;;;24.50;43.20;;;;;;4183516;22;19975;-84
2022/07/18 11:59:43;;;;;;;;;;;24.40;44.20;;;;;;4156622;28;19959;-82
2022/07/18 12:01:55;;;;;;;;;;;24.40;44.20;;;;;;4140652;28;19955;-82
2022/07/18 12:04:14;;;;;;;;;;;24.50;42.80;;;;;;4156165;28;21269;-85
2022/07/18 12:06:21;;;;;;;;;;;24.50;42.90;;;;;;4126462;28;19913;-83
2022/07/18 12:11:45;;;;;;;;;;;24.50;43.90;;;;;;4112943;28;19992;-84
2022/07/18 12:13:54;;;;;;;;;;;24.60;44.80;;;;;;4115799;28;19921;-83
2022/07/18 12:16:41;;;;;;;;;;;24.70;43.30;;;;;;4123586;28;19913;-83
2022/07/18 12:18:58;;;;;;;;;;;24.70;43.10;;;;;;4159640;28;20395;-83
2022/07/18 12:21:15;;;;;;;;;;;24.70;43.50;;;;;;4161665;28;19935;-85
2022/07/18 12:23:16;;;;;;;;;;;24.70;43.40;;;;;;4141154;28;19913;-84
2022/07/18 12:25:20;;;;;;;;;;;24.80;41.10;;;;;;4137744;28;19944;-84
2022/07/18 12:31:22;;;;;;;;;;;24.80;39.90;;;;;;4070030;28;20048;-82
2022/07/18 12:33:25;;;;;;;;;;;24.90;40.00;;;;;;4034821;29;19915;-86
2022/07/18 12:35:56;;;;;;;;;;;24.90;39.60;;;;;;4019910;29;20406;-84
2022/07/18 12:37:59;;;;;;;;;;;25.00;40.00;;;;;;4034515;29;19961;-87
2022/07/18 12:40:52;;;;;;;;;;;25.00;40.80;;;;;;4035791;29;19991;-84
2022/07/18 12:43:02;;;;;;;;;;;25.10;41.70;;;;;;3765954;29;2160960;-86
2022/07/18 12:45:25;;;;;;;;;;;25.10;40.50;;;;;;3911451;29;20001;-84
2022/07/18 12:48:14;;;;;;;;;;;25.20;41.60;;;;;;4052027;27;2069071;-85
2022/07/18 12:53:02;;;;;;;;;;;25.30;41.70;;;;;;4190483;28;19924;-85
2022/07/18 12:55:22;;;;;;;;;;;25.40;42.00;;;;;;4178394;28;19955;-85
2022/07/18 12:57:23;;;;;;;;;;;25.40;41.00;;;;;;4159334;28;19921;-80
2022/07/18 13:01:46;;;;;;;;;;;25.50;41.10;;;;;;3286127;26;19969;-84
2022/07/18 13:03:51;;;;;;;;;;;25.60;38.50;;;;;;4126317;28;20703;-84
2022/07/18 13:05:52;;;;;;;;;;;25.60;38.20;;;;;;4140159;28;19925;-83
2022/07/18 13:10:57;;;;;;;;;;;25.60;36.90;;;;;;4145408;28;19921;-82
2022/07/18 13:13:19;;;;;;;;;;;25.60;37.70;;;;;;4145823;28;19917;-84
2022/07/18 13:16:13;;;;;;;;;;;25.70;38.00;;;;;;4146819;28;19940;-85
2022/07/18 13:18:30;;;;;;;;;;;25.70;38.30;;;;;;4132777;28;19998;-86
2022/07/18 13:20:40;;;;;;;;;;;25.70;39.00;;;;;;4155741;28;19961;-87
2022/07/18 13:23:04;;;;;;;;;;;25.70;39.10;;;;;;4139849;28;20015;-84
2022/07/18 13:25:33;;;;;;;;;;;25.70;37.90;;;;;;4143191;28;20549;-84
2022/07/18 13:27:55;;;;;;;;;;;25.70;37.30;;;;;;4125586;28;19926;-86
2022/07/18 13:30:18;;;;;;;;;;;25.70;37.60;;;;;;4131193;28;20472;-87
2022/07/18 13:32:41;;;;;;;;;;;25.70;38.00;;;;;;4147519;28;20335;-85
2022/07/18 13:35:02;;;;;;;;;;;25.70;38.60;;;;;;4145502;28;19920;-85
2022/07/18 13:37:03;;;;;;;;;;;25.70;38.30;;;;;;4130901;28;19957;-83
2022/07/18 13:39:23;;;;;;;;;;;25.80;37.60;;;;;;4132832;28;20616;-86
2022/07/18 13:41:27;;;;;;;;;;;25.80;37.30;;;;;;4152307;28;19913;-87
2022/07/18 13:43:48;;;;;;;;;;;25.80;36.10;;;;;;4142911;28;20316;-86
2022/07/18 13:46:18;;;;;;;;;;;25.80;34.80;;;;;;4160531;28;20309;-94
2022/07/18 13:48:40;;;;;;;;;;;25.70;35.70;;;;;;4136984;28;20005;-90
2022/07/18 13:50:56;;;;;;;;;;;25.80;36.00;;;;;;4118134;28;19964;-92
2022/07/18 13:53:20;;;;;;;;;;;25.80;35.90;;;;;;4143636;28;19918;-92
2022/07/18 13:55:53;;;;;;;;;;;25.80;36.20;;;;;;4139845;28;19914;-92
2022/07/18 13:58:14;;;;;;;;;;;25.80;35.40;;;;;;4131854;28;19949;-91